Terminal Aerodrome Forecast
Issued by NWS Pocatello, ID

Home | Current Version | Previous Version | Text Only | Print | Product List | Glossary On
Versions: 1 2 3 4 5 6 7 8 9 10 11 12 13
000
FTUS45 KPIH 070520
TAFBYI
TAF
KBYI 070520Z 0706/0806 VRB05KT P6SM SCT120 BKN200
     FM071400 32007KT P6SM FEW080 SCT110 BKN150=

USA.gov is the U.S. government's official web portal to all federal, state and local government web resources and services.